createdAt,value
2018-07-17T00:01:15.674Z,19.93
2018-07-17T00:03:43.779Z,19.94
2018-07-17T00:06:11.874Z,19.93
2018-07-17T00:08:39.929Z,19.91
2018-07-17T00:11:08.170Z,19.91
2018-07-17T00:13:36.446Z,19.91
2018-07-17T00:16:04.711Z,19.83
2018-07-17T00:18:32.948Z,19.81
2018-07-17T00:21:01.516Z,19.82
2018-07-17T00:23:30.013Z,19.83
2018-07-17T00:25:58.408Z,19.76
2018-07-17T00:28:27.030Z,19.86
2018-07-17T00:30:55.699Z,19.85
2018-07-17T00:33:24.447Z,19.83
2018-07-17T00:35:53.078Z,19.83
2018-07-17T00:38:21.192Z,19.83
2018-07-17T00:40:49.314Z,19.82
2018-07-17T00:43:17.951Z,19.81
2018-07-17T00:45:45.999Z,19.81
2018-07-17T00:48:15.120Z,19.75
2018-07-17T00:50:43.191Z,19.71
2018-07-17T00:53:11.236Z,19.71
2018-07-17T00:55:39.362Z,19.71
2018-07-17T00:58:07.578Z,19.70
2018-07-17T01:00:40.954Z,19.69
2018-07-17T01:03:14.424Z,19.69
2018-07-17T01:05:47.760Z,19.68
2018-07-17T01:08:21.302Z,19.68
2018-07-17T01:10:54.744Z,19.67
2018-07-17T01:13:35.468Z,19.65
2018-07-17T01:16:03.532Z,19.61
2018-07-17T01:18:31.585Z,19.57
2018-07-17T01:20:59.616Z,19.55
2018-07-17T01:23:27.662Z,19.49
2018-07-17T01:25:55.696Z,19.42
2018-07-17T01:28:23.756Z,19.37
2018-07-17T01:30:51.811Z,19.33
2018-07-17T01:33:19.956Z,19.28
2018-07-17T01:35:48.022Z,19.23
2018-07-17T01:38:16.048Z,19.16
2018-07-17T01:40:44.144Z,19.11
2018-07-17T01:43:12.188Z,19.07
2018-07-17T01:45:40.610Z,19.03
2018-07-17T01:48:08.708Z,18.99
2018-07-17T01:50:36.876Z,18.95
2018-07-17T01:53:05.347Z,18.87
2018-07-17T01:55:33.403Z,18.81
2018-07-17T01:58:01.445Z,18.76
2018-07-17T02:00:29.703Z,18.73
2018-07-17T02:02:57.747Z,18.71
2018-07-17T02:05:26.205Z,18.66
2018-07-17T02:07:54.265Z,18.60
2018-07-17T02:10:24.549Z,18.49
2018-07-17T02:12:52.758Z,18.42
2018-07-17T02:15:21.029Z,18.38
2018-07-17T02:17:49.069Z,18.35
2018-07-17T02:20:18.149Z,18.33
2018-07-17T02:22:46.208Z,18.29
2018-07-17T02:25:14.265Z,18.25
2018-07-17T02:27:42.340Z,18.19
2018-07-17T02:30:11.432Z,18.14
2018-07-17T02:32:39.545Z,18.12
2018-07-17T02:35:07.651Z,18.10
2018-07-17T02:37:37.115Z,18.07
2018-07-17T02:40:05.773Z,18.06
2018-07-17T02:42:33.944Z,18.04
2018-07-17T02:45:02.140Z,17.98
2018-07-17T02:47:30.343Z,17.93
2018-07-17T02:49:58.589Z,17.92
2018-07-17T02:52:27.220Z,17.89
2018-07-17T02:54:55.647Z,17.87
2018-07-17T02:57:25.588Z,17.86
2018-07-17T02:59:54.865Z,17.77
2018-07-17T03:02:23.200Z,17.69
2018-07-17T03:04:51.383Z,17.64
2018-07-17T03:07:19.508Z,17.56
2018-07-17T03:09:47.596Z,17.54
2018-07-17T03:12:15.616Z,17.51
2018-07-17T03:14:43.802Z,17.52
2018-07-17T03:17:11.966Z,17.51
2018-07-17T03:19:40.093Z,17.51
2018-07-17T03:22:09.530Z,17.50
2018-07-17T03:24:37.603Z,17.51
2018-07-17T03:27:05.753Z,17.50
2018-07-17T03:29:33.960Z,17.50
2018-07-17T03:32:02.487Z,17.50
2018-07-17T03:34:31.483Z,17.42
2018-07-17T03:36:59.702Z,17.36
2018-07-17T03:39:27.934Z,17.36
2018-07-17T03:41:56.628Z,17.37
2018-07-17T03:44:26.495Z,17.40
2018-07-17T03:46:54.950Z,17.40
2018-07-17T03:49:24.208Z,17.38
2018-07-17T03:51:54.483Z,17.38
2018-07-17T03:54:22.910Z,17.39
2018-07-17T03:56:51.165Z,17.39
2018-07-17T03:59:19.470Z,17.41
2018-07-17T04:01:47.557Z,17.46
2018-07-17T04:04:15.594Z,17.50
2018-07-17T04:06:43.711Z,17.53
2018-07-17T04:09:11.785Z,17.54
2018-07-17T04:11:39.816Z,17.55
2018-07-17T04:14:09.915Z,17.55
2018-07-17T04:16:42.570Z,17.55
2018-07-17T04:19:10.620Z,17.58
2018-07-17T04:21:38.684Z,17.62
2018-07-17T04:24:08.512Z,17.67
2018-07-17T04:26:36.579Z,17.72
2018-07-17T04:29:04.907Z,17.82
2018-07-17T04:31:33.129Z,17.96
2018-07-17T04:34:01.165Z,18.16
2018-07-17T04:36:31.516Z,18.67
2018-07-17T04:38:59.568Z,19.54
2018-07-17T04:41:27.615Z,20.45
2018-07-17T04:43:56.486Z,21.48
2018-07-17T04:46:24.707Z,22.52
2018-07-17T04:48:53.292Z,23.50
2018-07-17T04:51:21.547Z,24.41
2018-07-17T04:53:49.703Z,25.20
2018-07-17T04:56:17.892Z,26.01
2018-07-17T04:58:46.056Z,26.87
2018-07-17T05:01:14.156Z,27.56
2018-07-17T05:03:42.191Z,28.05
2018-07-17T05:06:10.237Z,28.44
2018-07-17T05:08:38.339Z,28.64
2018-07-17T05:11:06.902Z,28.76
2018-07-17T05:13:34.947Z,28.77
2018-07-17T05:16:02.984Z,28.78
2018-07-17T05:18:31.190Z,28.91
2018-07-17T05:21:00.460Z,29.09
2018-07-17T05:23:28.505Z,28.97
2018-07-17T05:25:56.612Z,28.92
2018-07-17T05:28:26.512Z,28.88
2018-07-17T05:30:54.661Z,29.23
2018-07-17T05:33:23.583Z,29.79
2018-07-17T05:35:51.723Z,30.40
2018-07-17T05:38:19.773Z,30.92
2018-07-17T05:40:48.077Z,31.53
2018-07-17T05:43:16.126Z,32.08
2018-07-17T05:45:46.475Z,32.65
2018-07-17T05:48:14.551Z,33.17
2018-07-17T05:50:42.622Z,33.28
2018-07-17T05:53:10.649Z,33.41
2018-07-17T05:55:38.676Z,33.50
2018-07-17T05:58:06.944Z,33.55
2018-07-17T06:00:35.020Z,33.54
2018-07-17T06:03:03.077Z,33.93
2018-07-17T06:05:31.140Z,34.19
2018-07-17T06:07:59.221Z,34.35
2018-07-17T06:10:27.362Z,34.58
2018-07-17T06:12:55.327Z,34.66
2018-07-17T06:15:23.409Z,34.89
2018-07-17T06:17:51.501Z,35.27
2018-07-17T06:20:19.549Z,35.32
2018-07-17T06:22:47.619Z,35.39
2018-07-17T06:25:15.656Z,35.33
2018-07-17T06:27:43.708Z,35.42
2018-07-17T06:30:12.590Z,35.46
2018-07-17T06:32:40.732Z,35.50
2018-07-17T06:35:08.795Z,35.34
2018-07-17T06:37:37.069Z,35.46
2018-07-17T06:40:05.140Z,35.53
2018-07-17T06:42:33.226Z,35.59
2018-07-17T06:45:06.908Z,35.55
2018-07-17T06:47:35.003Z,35.50
2018-07-17T06:50:03.361Z,35.28
2018-07-17T06:52:31.455Z,35.35
2018-07-17T06:55:00.055Z,35.74
2018-07-17T06:57:28.141Z,35.90
2018-07-17T06:59:56.216Z,36.23
2018-07-17T07:02:24.296Z,36.29
2018-07-17T07:04:52.368Z,36.46
2018-07-17T07:07:22.285Z,36.54
2018-07-17T07:09:50.319Z,36.63
2018-07-17T07:12:18.379Z,36.76
2018-07-17T07:14:46.445Z,37.02
2018-07-17T07:17:14.515Z,37.19
2018-07-17T07:19:42.624Z,37.00
2018-07-17T07:22:10.682Z,36.90
2018-07-17T07:24:38.759Z,37.16
2018-07-17T07:27:07.889Z,37.24
2018-07-17T07:29:36.108Z,37.44
2018-07-17T07:32:04.444Z,37.66
2018-07-17T07:34:32.660Z,37.85
2018-07-17T07:37:00.689Z,37.65
2018-07-17T07:39:28.711Z,37.63
2018-07-17T07:41:56.771Z,37.82
2018-07-17T07:44:24.883Z,37.87
2018-07-17T07:46:52.969Z,37.92
2018-07-17T07:49:21.098Z,38.11
2018-07-17T07:51:49.303Z,37.93
2018-07-17T07:54:17.338Z,37.77
2018-07-17T07:56:45.503Z,37.41
2018-07-17T07:59:13.543Z,37.38
2018-07-17T08:01:42.066Z,37.57
2018-07-17T08:04:10.353Z,37.76
2018-07-17T08:06:38.411Z,37.58
2018-07-17T08:09:08.167Z,37.75
2018-07-17T08:11:36.318Z,38.06
2018-07-17T08:14:04.480Z,37.96
2018-07-17T08:16:32.732Z,37.54
2018-07-17T08:19:00.980Z,37.64
2018-07-17T08:21:29.167Z,37.74
2018-07-17T08:23:57.337Z,37.80
2018-07-17T08:26:25.907Z,37.77
2018-07-17T08:28:54.169Z,37.63
2018-07-17T08:31:22.249Z,37.65
2018-07-17T08:33:50.347Z,37.69
2018-07-17T08:36:18.431Z,37.63
2018-07-17T08:38:46.535Z,37.20
2018-07-17T08:41:14.609Z,36.84
2018-07-17T08:43:42.712Z,35.94
2018-07-17T08:46:10.788Z,36.27
2018-07-17T08:48:38.864Z,36.42
2018-07-17T08:51:07.006Z,36.34
2018-07-17T08:53:35.061Z,35.26
2018-07-17T08:56:03.300Z,34.73
2018-07-17T08:58:31.377Z,34.89
2018-07-17T09:00:59.435Z,35.11
2018-07-17T09:03:27.493Z,35.29
2018-07-17T09:05:55.567Z,35.48
2018-07-17T09:08:23.656Z,35.38
2018-07-17T09:10:51.699Z,35.21
2018-07-17T09:13:19.723Z,34.93
2018-07-17T09:15:47.779Z,34.86
2018-07-17T09:18:15.855Z,35.06
2018-07-17T09:20:43.899Z,35.21
2018-07-17T09:23:11.967Z,35.03
2018-07-17T09:25:40.010Z,34.74
2018-07-17T09:28:08.113Z,34.96
2018-07-17T09:30:41.822Z,35.34
2018-07-17T09:33:09.887Z,35.59
2018-07-17T09:35:37.967Z,35.97
2018-07-17T09:38:06.625Z,36.04
2018-07-17T09:40:34.640Z,35.70
2018-07-17T09:43:03.001Z,36.06
2018-07-17T09:45:31.375Z,36.47
2018-07-17T09:47:59.464Z,36.81
2018-07-17T09:50:27.602Z,37.11
2018-07-17T09:52:55.696Z,37.44
2018-07-17T09:55:23.752Z,37.56
2018-07-17T09:57:51.805Z,37.58
2018-07-17T10:00:25.387Z,37.78
2018-07-17T10:02:53.463Z,37.92
2018-07-17T10:05:21.532Z,37.43
2018-07-17T10:07:49.610Z,37.20
2018-07-17T10:10:17.790Z,37.21
2018-07-17T10:12:45.877Z,36.81
2018-07-17T10:15:14.365Z,36.32
2018-07-17T10:17:42.425Z,35.65
2018-07-17T10:20:10.985Z,35.07
2018-07-17T10:22:40.072Z,34.55
2018-07-17T10:25:11.738Z,34.36
2018-07-17T10:27:39.904Z,34.16
2018-07-17T10:30:08.014Z,33.90
2018-07-17T10:32:36.502Z,33.65
2018-07-17T10:35:04.644Z,33.47
2018-07-17T10:37:32.727Z,33.26
2018-07-17T10:40:01.796Z,33.16
2018-07-17T10:42:29.821Z,33.04
2018-07-17T10:44:57.897Z,32.81
2018-07-17T10:47:26.017Z,32.57
2018-07-17T10:49:53.983Z,32.54
2018-07-17T10:52:22.090Z,32.53
2018-07-17T10:54:50.300Z,32.50
2018-07-17T10:57:18.331Z,32.51
2018-07-17T10:59:46.420Z,32.52
2018-07-17T11:02:15.485Z,32.52
2018-07-17T11:04:43.540Z,32.16
2018-07-17T11:07:11.644Z,32.14
2018-07-17T11:09:39.652Z,32.24
2018-07-17T11:12:07.837Z,32.33
2018-07-17T11:14:35.991Z,32.24
2018-07-17T11:17:04.015Z,32.03
2018-07-17T11:19:32.207Z,31.71
2018-07-17T11:22:00.504Z,31.45
2018-07-17T11:24:28.880Z,31.62
2018-07-17T11:26:57.091Z,31.82
2018-07-17T11:29:25.651Z,31.98
2018-07-17T11:31:53.887Z,32.03
2018-07-17T11:34:21.921Z,32.14
2018-07-17T11:36:49.987Z,32.19
2018-07-17T11:39:18.880Z,32.23
2018-07-17T11:41:46.928Z,32.25
2018-07-17T11:44:15.012Z,32.30
2018-07-17T11:46:43.354Z,32.37
2018-07-17T11:49:11.383Z,32.27
2018-07-17T11:51:39.551Z,32.09
2018-07-17T11:54:07.615Z,32.16
2018-07-17T11:56:35.668Z,32.04
2018-07-17T11:59:03.770Z,31.92
2018-07-17T12:01:31.776Z,31.34
2018-07-17T12:03:59.822Z,31.20
2018-07-17T12:06:27.924Z,31.40
2018-07-17T12:08:55.964Z,31.59
2018-07-17T12:11:24.020Z,31.86
2018-07-17T12:13:52.084Z,32.12
2018-07-17T12:16:20.183Z,32.31
2018-07-17T12:18:48.302Z,32.42
2018-07-17T12:21:16.343Z,32.47
2018-07-17T12:23:44.415Z,32.47
2018-07-17T12:26:12.483Z,32.50
2018-07-17T12:28:40.645Z,32.56
2018-07-17T12:31:08.739Z,32.56
2018-07-17T12:33:36.811Z,32.45
2018-07-17T12:36:06.048Z,32.54
2018-07-17T12:38:34.116Z,32.62
2018-07-17T12:41:02.283Z,32.51
2018-07-17T12:43:30.360Z,32.46
2018-07-17T12:45:58.429Z,32.49
2018-07-17T12:48:26.487Z,32.42
2018-07-17T12:50:54.543Z,32.39
2018-07-17T12:53:22.618Z,32.41
2018-07-17T12:55:50.641Z,32.50
2018-07-17T12:58:18.672Z,32.58
2018-07-17T13:00:46.726Z,32.63
2018-07-17T13:03:14.772Z,32.71
2018-07-17T13:05:42.833Z,32.73
2018-07-17T13:08:11.287Z,32.70
2018-07-17T13:10:39.395Z,32.61
2018-07-17T13:13:07.748Z,32.39
2018-07-17T13:15:35.884Z,32.34
2018-07-17T13:18:04.117Z,32.46
2018-07-17T13:20:32.543Z,32.57
2018-07-17T13:23:01.071Z,32.40
2018-07-17T13:25:30.160Z,32.40
2018-07-17T13:27:58.272Z,32.45
2018-07-17T13:30:26.312Z,32.50
2018-07-17T13:32:54.585Z,32.26
2018-07-17T13:35:22.656Z,32.16
2018-07-17T13:37:50.708Z,32.07
2018-07-17T13:40:18.760Z,32.01
2018-07-17T13:42:46.840Z,31.95
2018-07-17T13:45:14.895Z,31.94
2018-07-17T13:47:42.940Z,31.94
2018-07-17T13:50:11.075Z,32.00
2018-07-17T13:52:39.136Z,32.06
2018-07-17T13:55:07.173Z,32.11
2018-07-17T13:57:35.263Z,32.28
2018-07-17T14:00:03.360Z,32.27
2018-07-17T14:02:31.469Z,32.30
2018-07-17T14:04:59.532Z,32.42
2018-07-17T14:07:27.616Z,32.48
2018-07-17T14:09:55.799Z,32.56
2018-07-17T14:12:24.037Z,32.57
2018-07-17T14:14:52.016Z,32.65
2018-07-17T14:17:20.121Z,32.72
2018-07-17T14:19:48.273Z,32.38
2018-07-17T14:22:16.405Z,32.43
2018-07-17T14:24:44.469Z,32.54
2018-07-17T14:27:12.520Z,32.61
2018-07-17T14:29:41.458Z,32.52
2018-07-17T14:32:09.488Z,32.42
2018-07-17T14:34:37.564Z,32.37
2018-07-17T14:37:05.707Z,32.25
2018-07-17T14:39:33.927Z,32.31
2018-07-17T14:42:02.087Z,32.24
2018-07-17T14:44:30.297Z,32.30
2018-07-17T14:46:58.696Z,32.34
2018-07-17T14:49:26.983Z,32.38
2018-07-17T14:51:55.621Z,32.25
2018-07-17T14:54:23.831Z,32.09
2018-07-17T14:56:51.998Z,32.04
2018-07-17T14:59:20.275Z,31.96
2018-07-17T15:01:48.400Z,31.87
2018-07-17T15:04:16.534Z,31.83
2018-07-17T15:06:44.580Z,31.75
2018-07-17T15:09:12.635Z,31.51
2018-07-17T15:11:40.716Z,31.63
2018-07-17T15:14:08.756Z,31.54
2018-07-17T15:16:36.852Z,31.44
2018-07-17T15:19:05.013Z,31.39
2018-07-17T15:21:33.093Z,31.35
2018-07-17T15:24:01.147Z,31.33
2018-07-17T15:26:29.183Z,31.28
2018-07-17T15:28:57.266Z,31.23
2018-07-17T15:31:25.287Z,31.16
2018-07-17T15:33:53.468Z,31.15
2018-07-17T15:36:21.623Z,31.14
2018-07-17T15:38:49.801Z,31.11
2018-07-17T15:41:18.016Z,31.05
2018-07-17T15:43:46.151Z,31.02
2018-07-17T15:46:14.232Z,31.05
2018-07-17T15:48:42.351Z,31.04
2018-07-17T15:51:10.386Z,31.04
2018-07-17T15:53:38.863Z,31.08
2018-07-17T15:56:07.100Z,31.09
2018-07-17T15:58:35.513Z,31.13
2018-07-17T16:01:03.710Z,31.11
2018-07-17T16:03:32.124Z,31.08
2018-07-17T16:06:00.315Z,31.05
2018-07-17T16:08:28.740Z,31.18
2018-07-17T16:10:57.741Z,31.36
2018-07-17T16:13:26.357Z,31.52
2018-07-17T16:15:55.219Z,31.60
2018-07-17T16:18:23.401Z,31.69
2018-07-17T16:20:51.748Z,31.87
2018-07-17T16:23:19.954Z,31.93
2018-07-17T16:25:48.879Z,31.85
2018-07-17T16:28:16.999Z,31.81
2018-07-17T16:30:45.137Z,31.77
2018-07-17T16:33:13.180Z,31.84
2018-07-17T16:35:41.372Z,31.87
2018-07-17T16:38:09.687Z,31.86
2018-07-17T16:40:37.862Z,31.88
2018-07-17T16:43:07.130Z,31.96
2018-07-17T16:45:35.730Z,31.91
2018-07-17T16:48:04.333Z,31.91
2018-07-17T16:50:32.821Z,31.89
2018-07-17T16:53:02.192Z,31.78
2018-07-17T16:55:30.523Z,31.66
2018-07-17T16:57:59.163Z,31.59
2018-07-17T17:00:27.592Z,31.42
2018-07-17T17:02:56.179Z,31.38
2018-07-17T17:05:25.654Z,31.32
2018-07-17T17:07:54.429Z,31.24
2018-07-17T17:10:22.583Z,31.24
2018-07-17T17:12:50.839Z,31.15
2018-07-17T17:15:19.207Z,31.08
2018-07-17T17:17:47.293Z,30.99
2018-07-17T17:20:15.420Z,30.97
2018-07-17T17:22:43.444Z,30.89
2018-07-17T17:25:11.488Z,30.92
2018-07-17T17:27:39.548Z,30.79
2018-07-17T17:30:07.583Z,30.63
2018-07-17T17:32:36.393Z,30.56
2018-07-17T17:35:04.446Z,30.53
2018-07-17T17:37:32.525Z,30.37
2018-07-17T17:40:00.571Z,30.31
2018-07-17T17:42:28.635Z,30.27
2018-07-17T17:44:56.867Z,30.17
2018-07-17T17:47:24.921Z,30.14
2018-07-17T17:49:53.378Z,30.08
2018-07-17T17:52:21.404Z,30.05
2018-07-17T17:54:49.905Z,29.91
2018-07-17T17:57:17.956Z,29.82
2018-07-17T17:59:46.008Z,29.67
2018-07-17T18:02:14.790Z,29.66
2018-07-17T18:04:42.859Z,29.60
2018-07-17T18:07:10.960Z,29.55
2018-07-17T18:09:39.923Z,29.36
2018-07-17T18:12:08.323Z,29.31
2018-07-17T18:14:36.867Z,29.22
2018-07-17T18:17:04.915Z,29.18
2018-07-17T18:19:32.962Z,29.09
2018-07-17T18:22:01.059Z,28.99
2018-07-17T18:24:29.100Z,28.91
2018-07-17T18:26:57.732Z,28.78
2018-07-17T18:29:25.732Z,28.72
2018-07-17T18:31:53.760Z,28.62
2018-07-17T18:34:21.902Z,28.53
2018-07-17T18:36:49.891Z,28.52
2018-07-17T18:39:17.982Z,28.42
2018-07-17T18:41:46.049Z,28.38
2018-07-17T18:44:14.119Z,28.29
2018-07-17T18:46:42.176Z,28.21
2018-07-17T18:49:10.395Z,28.18
2018-07-17T18:51:38.447Z,28.08
2018-07-17T18:54:06.768Z,28.00
2018-07-17T18:56:34.960Z,27.94
2018-07-17T18:59:03.166Z,27.87
2018-07-17T19:01:31.279Z,27.82
2018-07-17T19:04:01.099Z,27.74
2018-07-17T19:06:29.251Z,27.65
2018-07-17T19:08:57.324Z,27.55
2018-07-17T19:11:25.437Z,27.46
2018-07-17T19:13:55.453Z,27.40
2018-07-17T19:16:23.511Z,27.31
2018-07-17T19:18:51.531Z,27.18
2018-07-17T19:21:19.787Z,27.12
2018-07-17T19:23:48.556Z,26.93
2018-07-17T19:26:16.655Z,26.86
2018-07-17T19:28:44.780Z,26.82
2018-07-17T19:31:12.799Z,26.73
2018-07-17T19:33:40.863Z,26.61
2018-07-17T19:36:08.903Z,26.57
2018-07-17T19:38:37.307Z,26.47
2018-07-17T19:41:05.616Z,26.32
2018-07-17T19:43:35.274Z,26.16
2018-07-17T19:46:03.700Z,26.15
2018-07-17T19:48:32.343Z,26.05
2018-07-17T19:51:00.752Z,25.93
2018-07-17T19:53:29.432Z,25.82
2018-07-17T19:55:57.718Z,25.75
2018-07-17T19:58:26.465Z,25.66
2018-07-17T20:00:56.090Z,25.58
2018-07-17T20:03:24.216Z,25.45
2018-07-17T20:05:52.286Z,25.32
2018-07-17T20:08:21.914Z,25.23
2018-07-17T20:10:49.925Z,25.15
2018-07-17T20:13:18.164Z,25.09
2018-07-17T20:15:51.577Z,25.01
2018-07-17T20:18:19.762Z,24.87
2018-07-17T20:20:48.267Z,24.83
2018-07-17T20:23:20.759Z,24.74
2018-07-17T20:25:48.933Z,24.67
2018-07-17T20:28:17.568Z,24.62
2018-07-17T20:30:45.818Z,24.57
2018-07-17T20:33:14.151Z,24.54
2018-07-17T20:35:43.697Z,24.53
2018-07-17T20:38:11.747Z,24.48
2018-07-17T20:40:39.944Z,24.44
2018-07-17T20:43:07.971Z,24.42
2018-07-17T20:45:36.282Z,24.36
2018-07-17T20:48:05.448Z,24.24
2018-07-17T20:50:34.732Z,24.06
2018-07-17T20:53:03.253Z,23.82
2018-07-17T20:55:31.567Z,23.95
2018-07-17T20:57:59.905Z,23.89
2018-07-17T21:00:28.592Z,23.76
2018-07-17T21:02:57.108Z,23.74
2018-07-17T21:05:26.077Z,23.62
2018-07-17T21:07:54.934Z,23.62
2018-07-17T21:10:24.081Z,23.50
2018-07-17T21:12:52.604Z,23.41
2018-07-17T21:15:20.691Z,23.33
2018-07-17T21:17:48.736Z,23.30
2018-07-17T21:20:16.782Z,23.30
2018-07-17T21:22:44.838Z,23.24
2018-07-17T21:25:13.139Z,23.20
2018-07-17T21:27:41.164Z,23.17
2018-07-17T21:30:09.194Z,23.17
2018-07-17T21:32:37.259Z,23.02
2018-07-17T21:35:06.942Z,22.86
2018-07-17T21:37:35.564Z,22.91
2018-07-17T21:40:04.264Z,22.89
2018-07-17T21:42:32.835Z,22.91
2018-07-17T21:45:01.444Z,22.87
2018-07-17T21:47:31.045Z,22.82
2018-07-17T21:50:00.921Z,22.74
2018-07-17T21:52:29.953Z,22.59
2018-07-17T21:54:59.352Z,22.54
2018-07-17T21:57:28.996Z,22.55
2018-07-17T21:59:58.062Z,22.31
2018-07-17T22:02:28.524Z,22.22
2018-07-17T22:04:57.508Z,22.26
2018-07-17T22:07:26.875Z,22.31
2018-07-17T22:09:56.144Z,22.29
2018-07-17T22:12:26.292Z,22.31
2018-07-17T22:14:56.392Z,22.26
2018-07-17T22:17:26.962Z,22.29
2018-07-17T22:19:58.744Z,22.30
2018-07-17T22:22:28.209Z,22.32
2018-07-17T22:24:57.107Z,22.30
2018-07-17T22:27:29.065Z,22.10
2018-07-17T22:29:58.552Z,22.10
2018-07-17T22:32:32.107Z,22.01
2018-07-17T22:35:01.816Z,22.02
2018-07-17T22:37:31.432Z,22.05
2018-07-17T22:40:02.581Z,22.02
2018-07-17T22:42:32.078Z,22.02
2018-07-17T22:45:00.652Z,21.97
2018-07-17T22:47:34.583Z,21.83
2018-07-17T22:50:03.994Z,21.53
2018-07-17T22:52:32.591Z,21.59
2018-07-17T22:55:01.067Z,21.55
2018-07-17T22:57:30.750Z,21.55
2018-07-17T22:59:59.504Z,21.50
2018-07-17T23:02:28.411Z,21.43
2018-07-17T23:04:57.558Z,21.32
2018-07-17T23:07:26.227Z,21.10
2018-07-17T23:09:55.462Z,20.86
2018-07-17T23:12:26.628Z,20.83
2018-07-17T23:14:55.635Z,20.86
2018-07-17T23:17:24.828Z,20.79
2018-07-17T23:19:54.564Z,20.88
2018-07-17T23:22:32.072Z,20.91
2018-07-17T23:25:00.123Z,20.92
2018-07-17T23:27:28.232Z,20.94
2018-07-17T23:29:56.299Z,20.95
2018-07-17T23:32:25.547Z,20.87
2018-07-17T23:34:55.857Z,20.92
2018-07-17T23:37:23.925Z,20.94
2018-07-17T23:39:51.973Z,20.94
2018-07-17T23:42:26.931Z,20.94
2018-07-17T23:44:55.041Z,20.99
2018-07-17T23:47:25.073Z,21.02
2018-07-17T23:49:54.078Z,20.99
2018-07-17T23:52:22.128Z,20.91
2018-07-17T23:54:50.180Z,20.85
2018-07-17T23:57:19.626Z,20.83
2018-07-17T23:59:47.699Z,20.81
